createdAt,value
2022-09-03T00:01:01.811Z,97994.25
2022-09-03T00:03:03.239Z,97989.13
2022-09-03T00:05:05.392Z,98000.16
2022-09-03T00:07:06.703Z,97989.97
2022-09-03T00:09:08.402Z,97991.69
2022-09-03T00:11:09.895Z,98001.03
2022-09-03T00:13:11.477Z,97998.50
2022-09-03T00:15:12.774Z,98001.06
2022-09-03T00:17:14.079Z,97997.66
2022-09-03T00:19:15.419Z,98000.25
2022-09-03T00:21:16.779Z,97997.72
2022-09-03T00:23:18.483Z,97996.84
2022-09-03T00:25:19.831Z,97999.34
2022-09-03T00:27:21.142Z,97992.50
2022-09-03T00:29:22.446Z,97978.06
2022-09-03T00:31:27.527Z,97974.72
2022-09-03T00:33:28.985Z,97982.38
2022-09-03T00:35:31.474Z,97979.00
2022-09-03T00:37:33.700Z,97986.66
2022-09-03T00:39:39.533Z,97982.44
2022-09-03T00:41:41.596Z,97980.75
2022-09-03T00:43:43.514Z,97978.19
2022-09-03T00:45:44.856Z,97971.38
2022-09-03T00:47:46.165Z,97977.41
2022-09-03T00:49:47.555Z,97985.06
2022-09-03T00:51:49.942Z,97974.00
2022-09-03T00:53:52.118Z,97983.34
2022-09-03T00:55:57.022Z,97974.00
2022-09-03T00:57:58.324Z,97975.72
2022-09-03T01:00:00.198Z,97971.50
2022-09-03T01:02:01.658Z,97974.03
2022-09-03T01:04:04.131Z,97967.25
2022-09-03T01:06:05.462Z,97974.78
2022-09-03T01:08:06.827Z,97966.19
2022-09-03T01:10:08.125Z,97967.91
2022-09-03T01:12:13.590Z,97972.16
2022-09-03T01:14:14.944Z,97960.31
2022-09-03T01:16:16.304Z,97956.78
2022-09-03T01:18:17.678Z,97967.06
2022-09-03T01:20:18.978Z,97967.13
2022-09-03T01:22:21.081Z,97962.00
2022-09-03T01:24:23.291Z,97968.78
2022-09-03T01:26:24.606Z,97968.81
2022-09-03T01:28:25.942Z,97966.28
2022-09-03T01:30:27.247Z,97957.75
2022-09-03T01:32:29.226Z,97962.03
2022-09-03T01:34:30.531Z,97951.84
2022-09-03T01:36:32.177Z,97951.84
2022-09-03T01:38:33.526Z,97952.72
2022-09-03T01:40:34.883Z,97959.53
2022-09-03T01:42:36.227Z,97963.78
2022-09-03T01:44:39.473Z,97953.63
2022-09-03T01:46:40.933Z,97953.63
2022-09-03T01:48:42.413Z,97954.47
2022-09-03T01:50:43.807Z,97952.72
2022-09-03T01:52:45.110Z,97956.97
2022-09-03T01:54:46.406Z,97955.34
2022-09-03T01:56:47.771Z,97952.78
2022-09-03T01:58:49.127Z,97946.88
2022-09-03T02:00:50.445Z,97940.03
2022-09-03T02:02:51.861Z,97945.97
2022-09-03T02:04:53.222Z,97952.84
2022-09-03T02:06:54.595Z,97953.69
2022-09-03T02:08:55.910Z,97959.66
2022-09-03T02:11:00.005Z,97953.69
2022-09-03T02:13:01.334Z,97959.66
2022-09-03T02:15:03.837Z,97957.97
2022-09-03T02:17:05.130Z,97974.19
2022-09-03T02:19:06.475Z,97955.41
2022-09-03T02:21:07.827Z,97957.09
2022-09-03T02:23:09.155Z,97957.16
2022-09-03T02:25:11.088Z,97957.16
2022-09-03T02:27:12.399Z,97949.50
2022-09-03T02:29:13.703Z,97950.41
2022-09-03T02:31:15.088Z,97952.97
2022-09-03T02:33:16.470Z,97947.91
2022-09-03T02:35:17.777Z,97949.56
2022-09-03T02:37:19.588Z,97947.06
2022-09-03T02:39:21.037Z,97944.50
2022-09-03T02:41:22.812Z,97944.50
2022-09-03T02:43:25.939Z,97953.88
2022-09-03T02:45:27.475Z,97948.78
2022-09-03T02:47:28.779Z,97953.88
2022-09-03T02:49:30.071Z,97947.09
2022-09-03T02:51:31.418Z,97949.56
2022-09-03T02:53:32.978Z,97946.94
2022-09-03T02:55:34.283Z,97799.28
2022-09-03T02:57:35.587Z,97952.06
2022-09-03T02:59:36.902Z,97949.56
2022-09-03T03:01:38.240Z,97957.22
2022-09-03T03:03:43.345Z,97957.22
2022-09-03T03:05:44.670Z,97961.47
2022-09-03T03:07:45.983Z,97953.81
2022-09-03T03:09:47.282Z,97955.53
2022-09-03T03:11:50.585Z,97955.50
2022-09-03T03:13:51.917Z,97952.09
2022-09-03T03:15:53.259Z,97956.31
2022-09-03T03:17:54.567Z,97945.28
2022-09-03T03:19:55.974Z,97950.41
2022-09-03T03:21:57.364Z,97960.63
2022-09-03T03:23:58.671Z,97948.66
2022-09-03T03:26:00.094Z,97939.34
2022-09-03T03:28:01.399Z,97945.38
2022-09-03T03:30:02.699Z,97936.88
2022-09-03T03:32:04.046Z,97944.53
2022-09-03T03:34:05.505Z,97930.88
2022-09-03T03:36:07.116Z,97935.16
2022-09-03T03:38:08.433Z,97932.66
2022-09-03T03:40:09.782Z,97939.53
2022-09-03T03:42:11.543Z,97948.94
2022-09-03T03:44:12.887Z,97939.66
2022-09-03T03:46:15.172Z,97950.72
2022-09-03T03:48:16.719Z,97948.03
2022-09-03T03:50:18.063Z,97947.91
2022-09-03T03:52:19.358Z,97941.97
2022-09-03T03:54:20.659Z,97947.94
2022-09-03T03:56:21.963Z,97949.69
2022-09-03T03:58:23.789Z,97954.00
2022-09-03T04:00:25.393Z,97951.38
2022-09-03T04:02:26.818Z,97955.69
2022-09-03T04:04:28.231Z,97944.63
2022-09-03T04:06:29.597Z,97946.34
2022-09-03T04:08:30.900Z,97942.09
2022-09-03T04:10:32.216Z,97948.09
2022-09-03T04:12:33.556Z,97941.25
2022-09-03T04:14:35.277Z,97940.44
2022-09-03T04:16:36.656Z,97945.44
2022-09-03T04:18:37.976Z,97943.72
2022-09-03T04:20:39.300Z,97945.44
2022-09-03T04:22:40.605Z,97944.53
2022-09-03T04:24:41.939Z,97954.91
2022-09-03T04:26:43.250Z,97940.50
2022-09-03T04:28:45.230Z,97943.13
2022-09-03T04:30:49.280Z,97939.75
2022-09-03T04:32:53.582Z,97938.09
2022-09-03T04:34:55.024Z,97940.69
2022-09-03T04:36:59.103Z,97937.28
2022-09-03T04:39:00.602Z,97941.53
2022-09-03T04:41:01.949Z,97939.88
2022-09-03T04:43:03.720Z,97933.97
2022-09-03T04:45:05.035Z,97936.53
2022-09-03T04:47:06.387Z,97936.53
2022-09-03T04:49:09.444Z,97943.34
2022-09-03T04:51:10.767Z,97941.66
2022-09-03T04:53:12.068Z,97947.63
2022-09-03T04:55:13.587Z,97944.25
2022-09-03T04:57:14.919Z,97936.59
2022-09-03T04:59:16.334Z,97933.19
2022-09-03T05:01:17.669Z,97930.66
2022-09-03T05:03:19.027Z,97936.63
2022-09-03T05:05:20.366Z,97941.72
2022-09-03T05:07:21.711Z,97941.72
2022-09-03T05:09:23.591Z,97948.53
2022-09-03T05:11:24.907Z,97943.44
2022-09-03T05:13:26.271Z,97943.44
2022-09-03T05:15:27.611Z,97940.06
2022-09-03T05:17:28.939Z,97806.75
2022-09-03T05:19:31.707Z,97944.31
2022-09-03T05:21:33.011Z,97940.00
2022-09-03T05:23:37.669Z,97942.50
2022-09-03T05:25:39.218Z,97940.81
2022-09-03T05:27:40.539Z,97941.66
2022-09-03T05:29:42.082Z,97937.41
2022-09-03T05:31:43.477Z,97938.75
2022-09-03T05:33:44.857Z,97937.03
2022-09-03T05:35:46.160Z,97930.28
2022-09-03T05:37:48.027Z,97928.72
2022-09-03T05:39:49.423Z,97928.78
2022-09-03T05:41:52.348Z,97932.97
2022-09-03T05:43:55.993Z,97935.41
2022-09-03T05:45:57.413Z,97933.69
2022-09-03T05:47:58.741Z,97943.84
2022-09-03T05:50:00.584Z,97942.13
2022-09-03T05:52:02.052Z,97935.28
2022-09-03T05:54:03.899Z,97938.75
2022-09-03T05:56:06.190Z,97939.66
2022-09-03T05:58:07.563Z,97943.97
2022-09-03T06:00:09.354Z,97946.56
2022-09-03T06:02:11.128Z,97942.25
2022-09-03T06:04:13.506Z,97933.69
2022-09-03T06:06:15.070Z,97941.25
2022-09-03T06:08:16.374Z,97941.16
2022-09-03T06:10:20.290Z,97938.53
2022-09-03T06:12:24.953Z,97943.66
2022-09-03T06:14:26.779Z,97939.41
2022-09-03T06:16:30.644Z,97942.81
2022-09-03T06:18:33.517Z,97939.41
2022-09-03T06:20:37.150Z,97947.91
2022-09-03T06:22:38.718Z,97950.53
2022-09-03T06:24:40.011Z,97949.69
2022-09-03T06:26:42.839Z,97945.56
2022-09-03T06:28:44.624Z,97945.66
2022-09-03T06:30:45.957Z,97946.56
2022-09-03T06:32:47.794Z,97949.97
2022-09-03T06:34:49.102Z,97948.28
2022-09-03T06:36:50.596Z,97957.72
2022-09-03T06:38:51.906Z,97950.91
2022-09-03T06:40:53.243Z,97959.41
2022-09-03T06:42:55.028Z,97949.19
2022-09-03T06:44:57.500Z,97954.28
2022-09-03T06:47:01.450Z,97948.41
2022-09-03T06:49:02.827Z,97950.09
2022-09-03T06:51:04.284Z,97956.03
2022-09-03T06:53:06.155Z,97959.47
2022-09-03T06:55:07.515Z,97959.34
2022-09-03T06:57:08.923Z,97962.56
2022-09-03T06:59:10.312Z,97961.66
2022-09-03T07:01:11.830Z,97960.69
2022-09-03T07:03:13.179Z,97959.91
2022-09-03T07:05:14.483Z,97956.41
2022-09-03T07:07:16.402Z,97960.88
2022-09-03T07:09:19.075Z,97956.84
2022-09-03T07:11:22.427Z,97957.00
2022-09-03T07:13:25.979Z,97952.81
2022-09-03T07:15:27.354Z,97955.22
2022-09-03T07:17:28.759Z,97956.34
2022-09-03T07:19:30.087Z,97957.84
2022-09-03T07:21:31.595Z,97958.13
2022-09-03T07:23:33.150Z,97948.06
2022-09-03T07:25:34.828Z,97951.53
2022-09-03T07:27:36.270Z,97951.19
2022-09-03T07:29:37.710Z,97945.44
2022-09-03T07:31:39.048Z,97938.16
2022-09-03T07:33:40.382Z,97938.78
2022-09-03T07:35:41.862Z,97939.47
2022-09-03T07:37:43.176Z,97949.41
2022-09-03T07:39:44.730Z,97956.78
2022-09-03T07:41:46.316Z,97943.84
2022-09-03T07:43:47.695Z,97945.69
2022-09-03T07:45:49.992Z,97941.72
2022-09-03T07:47:51.539Z,97940.91
2022-09-03T07:49:52.859Z,97937.69
2022-09-03T07:51:56.734Z,97938.69
2022-09-03T07:53:58.053Z,97942.16
2022-09-03T07:55:59.403Z,97939.72
2022-09-03T07:58:00.725Z,97932.97
2022-09-03T08:00:02.066Z,97938.19
2022-09-03T08:02:06.076Z,97936.59
2022-09-03T08:04:09.725Z,97936.56
2022-09-03T08:06:11.417Z,97934.84
2022-09-03T08:08:20.991Z,97936.78
2022-09-03T08:10:22.754Z,97941.69
2022-09-03T08:12:24.166Z,97937.25
2022-09-03T08:14:25.515Z,97935.38
2022-09-03T08:16:26.888Z,97949.31
2022-09-03T08:18:35.431Z,97945.56
2022-09-03T08:20:37.645Z,97946.13
2022-09-03T08:22:38.966Z,97932.13
2022-09-03T08:24:40.567Z,97937.97
2022-09-03T08:26:45.287Z,97935.81
2022-09-03T08:28:49.311Z,97929.44
2022-09-03T08:30:50.609Z,97937.56
2022-09-03T08:32:52.055Z,97934.75
2022-09-03T08:34:53.383Z,97934.69
2022-09-03T08:36:54.754Z,97931.94
2022-09-03T08:38:56.123Z,97929.97
2022-09-03T08:40:57.430Z,97941.03
2022-09-03T08:43:04.883Z,97939.25
2022-09-03T08:45:07.938Z,97940.66
2022-09-03T08:47:09.255Z,97935.59
2022-09-03T08:49:10.615Z,97939.66
2022-09-03T08:51:11.916Z,97935.16
2022-09-03T08:53:13.266Z,97930.34
2022-09-03T08:55:14.798Z,97923.06
2022-09-03T08:57:16.103Z,97930.81
2022-09-03T08:59:17.482Z,97925.16
2022-09-03T09:01:18.903Z,97923.72
2022-09-03T09:03:20.240Z,97918.16
2022-09-03T09:05:21.558Z,97924.53
2022-09-03T09:07:26.154Z,97920.41
2022-09-03T09:09:27.788Z,97915.69
2022-09-03T09:11:29.115Z,97918.25
2022-09-03T09:13:30.435Z,97921.84
2022-09-03T09:15:31.819Z,97921.69
2022-09-03T09:17:33.650Z,97941.81
2022-09-03T09:19:34.955Z,97922.19
2022-09-03T09:21:36.304Z,97917.00
2022-09-03T09:23:37.615Z,97928.41
2022-09-03T09:25:39.418Z,97917.69
2022-09-03T09:27:40.723Z,97921.88
2022-09-03T09:29:42.049Z,97915.88
2022-09-03T09:31:46.187Z,97922.53
2022-09-03T09:33:47.532Z,97916.19
2022-09-03T09:35:48.877Z,97910.41
2022-09-03T09:37:50.227Z,97911.25
2022-09-03T09:39:51.576Z,97914.00
2022-09-03T09:41:54.025Z,97911.78
2022-09-03T09:43:55.423Z,97907.31
2022-09-03T09:45:56.760Z,97906.72
2022-09-03T09:47:58.113Z,97912.91
2022-09-03T09:49:59.776Z,97915.94
2022-09-03T09:52:01.351Z,97916.94
2022-09-03T09:54:02.727Z,97911.19
2022-09-03T09:56:04.108Z,97910.38
2022-09-03T09:58:05.592Z,97898.66
2022-09-03T10:00:09.426Z,97901.16
2022-09-03T10:02:10.761Z,97899.41
2022-09-03T10:04:14.986Z,97907.09
2022-09-03T10:06:34.916Z,97900.22
2022-09-03T10:08:36.223Z,97901.97
2022-09-03T10:10:37.971Z,97909.75
2022-09-03T10:12:40.129Z,97899.56
2022-09-03T10:14:42.026Z,97888.94
2022-09-03T10:16:48.980Z,97885.72
2022-09-03T10:18:50.327Z,97890.16
2022-09-03T10:20:51.813Z,97876.59
2022-09-03T10:22:56.821Z,97882.56
2022-09-03T10:24:58.715Z,97876.50
2022-09-03T10:27:00.090Z,97879.75
2022-09-03T10:29:01.410Z,97887.19
2022-09-03T10:31:02.768Z,97879.66
2022-09-03T10:33:04.574Z,97890.69
2022-09-03T10:35:10.214Z,97879.91
2022-09-03T10:37:11.578Z,97879.28
2022-09-03T10:39:12.876Z,97878.44
2022-09-03T10:41:14.184Z,97882.63
2022-09-03T10:43:16.627Z,97870.06
2022-09-03T10:45:18.103Z,97876.81
2022-09-03T10:47:19.978Z,97882.81
2022-09-03T10:49:21.290Z,97874.16
2022-09-03T10:51:22.607Z,97868.59
2022-09-03T10:55:25.298Z,97870.53
2022-09-03T10:57:26.815Z,97868.38
2022-09-03T10:59:29.253Z,97865.53
2022-09-03T11:01:30.806Z,97870.88
2022-09-03T11:03:32.938Z,97867.88
2022-09-03T11:05:36.127Z,97864.84
2022-09-03T11:07:37.775Z,97863.22
2022-09-03T11:09:39.918Z,97861.38
2022-09-03T11:11:41.250Z,97861.22
2022-09-03T11:13:42.591Z,97855.47
2022-09-03T11:15:43.968Z,97852.28
2022-09-03T11:17:45.335Z,97858.91
2022-09-03T11:19:51.277Z,97847.16
2022-09-03T11:21:52.613Z,97852.16
2022-09-03T11:23:55.177Z,97851.53
2022-09-03T11:25:56.690Z,97843.50
2022-09-03T11:27:58.399Z,97848.84
2022-09-03T11:30:00.439Z,97849.06
2022-09-03T11:32:01.764Z,97854.06
2022-09-03T11:34:03.066Z,97851.91
2022-09-03T11:36:04.425Z,97855.56
2022-09-03T11:38:05.773Z,97854.06
2022-09-03T11:40:07.904Z,97845.63
2022-09-03T11:42:09.245Z,97846.53
2022-09-03T11:44:10.551Z,97841.53
2022-09-03T11:46:12.843Z,97843.22
2022-09-03T11:48:14.215Z,97848.88
2022-09-03T11:50:15.520Z,97852.94
2022-09-03T11:52:17.013Z,97847.78
2022-09-03T11:54:21.019Z,97852.84
2022-09-03T11:56:22.970Z,97847.94
2022-09-03T11:58:24.450Z,97853.06
2022-09-03T12:00:25.783Z,97848.03
2022-09-03T12:02:28.142Z,97836.19
2022-09-03T12:04:30.310Z,97835.97
2022-09-03T12:06:31.665Z,97839.84
2022-09-03T12:08:33.490Z,97832.34
2022-09-03T12:10:34.962Z,97839.53
2022-09-03T12:12:36.263Z,97836.38
2022-09-03T12:14:37.657Z,97846.69
2022-09-03T12:16:39.018Z,97849.66
2022-09-03T12:18:40.346Z,97839.84
2022-09-03T12:20:41.695Z,97835.41
2022-09-03T12:22:43.114Z,97839.94
2022-09-03T12:24:45.063Z,97839.25
2022-09-03T12:26:46.489Z,97840.34
2022-09-03T12:28:47.820Z,97837.81
2022-09-03T12:30:49.393Z,97840.41
2022-09-03T12:32:52.314Z,97837.00
2022-09-03T12:34:53.694Z,97842.13
2022-09-03T12:36:55.012Z,97838.78
2022-09-03T12:39:12.981Z,97838.81
2022-09-03T12:41:22.998Z,97835.44
2022-09-03T12:43:49.974Z,97838.03
2022-09-03T12:48:12.469Z,97841.59
2022-09-03T12:50:13.864Z,97837.41
2022-09-03T12:52:15.610Z,97836.63
2022-09-03T12:54:17.635Z,97834.91
2022-09-03T12:56:19.160Z,97832.28
2022-09-03T12:58:20.470Z,97827.56
2022-09-03T13:00:23.086Z,97819.78
2022-09-03T13:02:24.472Z,97821.63
2022-09-03T13:04:26.873Z,97819.97
2022-09-03T13:06:28.454Z,97821.25
2022-09-03T13:08:29.806Z,97824.59
2022-09-03T13:10:31.302Z,97818.75
2022-09-03T13:12:33.552Z,97821.50
2022-09-03T13:14:35.034Z,97825.00
2022-09-03T13:16:36.417Z,97828.50
2022-09-03T13:18:37.791Z,97826.88
2022-09-03T13:20:39.161Z,97832.88
2022-09-03T13:22:40.479Z,97826.94
2022-09-03T13:24:41.927Z,97821.91
2022-09-03T13:26:44.341Z,97814.16
2022-09-03T13:28:45.659Z,97818.31
2022-09-03T13:30:47.023Z,97813.03
2022-09-03T13:32:51.125Z,97811.34
2022-09-03T13:34:52.881Z,97818.09
2022-09-03T13:36:54.250Z,97816.50
2022-09-03T13:38:55.582Z,97814.56
2022-09-03T13:40:56.926Z,97817.41
2022-09-03T13:42:59.765Z,97822.78
2022-09-03T13:45:01.067Z,97820.41
2022-09-03T13:47:02.374Z,97825.66
2022-09-03T13:49:22.184Z,97818.06
2022-09-03T13:51:23.543Z,97819.84
2022-09-03T13:53:25.155Z,97822.34
2022-09-03T13:55:27.629Z,97809.66
2022-09-03T13:57:28.957Z,97803.78
2022-09-03T13:59:30.295Z,97804.66
2022-09-03T14:01:31.679Z,97803.00
2022-09-03T14:03:33.369Z,97809.00
2022-09-03T14:05:35.070Z,97804.56
2022-09-03T14:07:36.495Z,97800.44
2022-09-03T14:09:37.915Z,97804.00
2022-09-03T14:11:39.260Z,97795.72
2022-09-03T14:13:40.562Z,97798.47
2022-09-03T14:15:45.460Z,97801.97
2022-09-03T14:17:47.131Z,97797.06
2022-09-03T14:19:48.505Z,97787.03
2022-09-03T14:21:49.807Z,97784.06
2022-09-03T14:23:51.294Z,97786.34
2022-09-03T14:25:52.695Z,97788.25
2022-09-03T14:27:54.015Z,97783.00
2022-09-03T14:29:55.330Z,97778.28
2022-09-03T14:31:56.717Z,97786.69
2022-09-03T14:33:58.054Z,97783.75
2022-09-03T14:35:59.366Z,97788.06
2022-09-03T14:38:00.844Z,97782.94
2022-09-03T14:40:02.514Z,97786.06
2022-09-03T14:42:03.931Z,97785.53
2022-09-03T14:44:05.226Z,97784.09
2022-09-03T14:46:06.741Z,97780.19
2022-09-03T14:48:08.114Z,97795.22
2022-09-03T14:50:09.424Z,97817.25
2022-09-03T14:52:11.643Z,97793.69
2022-09-03T14:54:12.983Z,97786.16
2022-09-03T14:56:14.300Z,97783.78
2022-09-03T14:58:15.606Z,97783.09
2022-09-03T15:00:18.461Z,97784.59
2022-09-03T15:02:21.450Z,97786.44
2022-09-03T15:04:22.805Z,97793.22
2022-09-03T15:06:30.712Z,97788.91
2022-09-03T15:08:32.420Z,97783.91
2022-09-03T15:10:36.368Z,97777.38
2022-09-03T15:12:37.706Z,97782.88
2022-09-03T15:14:39.090Z,97781.91
2022-09-03T15:16:40.516Z,97652.78
2022-09-03T15:18:41.887Z,97782.63
2022-09-03T15:20:43.182Z,97778.53
2022-09-03T15:22:49.309Z,97782.03
2022-09-03T15:24:51.382Z,97782.13
2022-09-03T15:26:52.732Z,97787.31
2022-09-03T15:28:54.034Z,97786.53
2022-09-03T15:30:55.409Z,97775.53
2022-09-03T15:32:56.951Z,97782.41
2022-09-03T15:34:58.282Z,97777.31
2022-09-03T15:37:02.779Z,97773.13
2022-09-03T15:39:06.522Z,97777.41
2022-09-03T15:41:08.381Z,97769.81
2022-09-03T15:43:09.754Z,97771.50
2022-09-03T15:45:11.596Z,97775.78
2022-09-03T15:47:14.211Z,97775.00
2022-09-03T15:49:16.046Z,97770.75
2022-09-03T15:51:17.410Z,97781.00
2022-09-03T15:53:19.155Z,97776.03
2022-09-03T15:55:20.487Z,97774.47
2022-09-03T15:57:21.934Z,97772.88
2022-09-03T15:59:23.698Z,97765.16
2022-09-03T16:01:25.055Z,97774.63
2022-09-03T16:03:27.308Z,97778.81
2022-09-03T16:05:29.111Z,97784.00
2022-09-03T16:07:30.415Z,97778.13
2022-09-03T16:09:31.732Z,97786.75
2022-09-03T16:11:33.068Z,97781.66
2022-09-03T16:13:34.471Z,97785.19
2022-09-03T16:15:35.789Z,97781.84
2022-09-03T16:17:39.314Z,97787.00
2022-09-03T16:19:40.627Z,97785.31
2022-09-03T16:21:41.922Z,97785.38
2022-09-03T16:23:43.295Z,97781.91
2022-09-03T16:25:45.206Z,97789.97
2022-09-03T16:27:46.519Z,97783.94
2022-09-03T16:29:47.835Z,97791.50
2022-09-03T16:31:49.213Z,97784.63
2022-09-03T16:33:50.564Z,97794.00
2022-09-03T16:35:51.911Z,97794.84
2022-09-03T16:37:53.222Z,97798.28
2022-09-03T16:39:54.558Z,97798.34
2022-09-03T16:41:55.947Z,97792.38
2022-09-03T16:43:57.349Z,97791.31
2022-09-03T16:46:00.992Z,97791.13
2022-09-03T16:48:02.431Z,97795.72
2022-09-03T16:50:03.772Z,97786.56
2022-09-03T16:52:05.087Z,97790.84
2022-09-03T16:54:07.987Z,97786.34
2022-09-03T16:56:09.309Z,97790.22
2022-09-03T16:58:10.626Z,97786.28
2022-09-03T17:00:12.587Z,97795.25
2022-09-03T17:02:37.078Z,97795.75
2022-09-03T17:04:35.500Z,97799.19
2022-09-03T17:06:37.004Z,97794.84
2022-09-03T17:08:38.325Z,97793.19
2022-09-03T17:10:39.707Z,97634.16
2022-09-03T17:12:41.028Z,97775.94
2022-09-03T17:14:42.347Z,97775.06
2022-09-03T17:16:43.759Z,97787.22
2022-09-03T17:18:45.102Z,97776.78
2022-09-03T17:20:49.396Z,97776.53
2022-09-03T17:22:51.258Z,97784.78
2022-09-03T17:24:59.156Z,97775.94
2022-09-03T17:27:04.253Z,97780.47
2022-09-03T17:29:05.834Z,97776.88
2022-09-03T17:31:09.950Z,97782.66
2022-09-03T17:33:17.310Z,97786.28
2022-09-03T17:35:18.750Z,97788.03
2022-09-03T17:37:20.504Z,97791.56
2022-09-03T17:39:21.861Z,97793.19
2022-09-03T17:41:23.267Z,97790.81
2022-09-03T17:43:24.718Z,97794.75
2022-09-03T17:45:28.414Z,97793.03
2022-09-03T17:47:29.815Z,97793.72
2022-09-03T17:49:31.176Z,97804.38
2022-09-03T17:51:32.546Z,97805.06
2022-09-03T17:53:33.851Z,97803.72
2022-09-03T17:55:35.228Z,97799.66
2022-09-03T17:57:36.535Z,97805.84
2022-09-03T17:59:37.842Z,97802.53
2022-09-03T18:01:39.232Z,97804.31
2022-09-03T18:03:40.647Z,97805.25
2022-09-03T18:05:42.011Z,97810.44
2022-09-03T18:07:45.647Z,97812.22
2022-09-03T18:09:46.957Z,97814.81
2022-09-03T18:11:48.312Z,97810.59
2022-09-03T18:13:49.714Z,97819.19
2022-09-03T18:15:51.610Z,97819.19
2022-09-03T18:17:53.012Z,97825.16
2022-09-03T18:20:12.806Z,97832.91
2022-09-03T18:22:32.734Z,97832.94
2022-09-03T18:24:52.586Z,97831.25
2022-09-03T18:27:12.503Z,97827.88
2022-09-03T18:29:32.330Z,97830.47
2022-09-03T18:31:52.215Z,97834.28
2022-09-03T18:34:12.132Z,97843.84
2022-09-03T18:36:32.064Z,97844.34
2022-09-03T18:38:51.962Z,97839.03
2022-09-03T18:41:12.615Z,97842.13
2022-09-03T18:43:32.573Z,97844.50
2022-09-03T18:48:32.615Z,97843.06
2022-09-03T18:50:52.959Z,97841.28
2022-09-03T18:53:13.157Z,97848.03
2022-09-03T18:55:33.043Z,97843.13
2022-09-03T18:57:52.975Z,97841.34
2022-09-03T19:00:13.210Z,97837.81
2022-09-03T19:02:33.323Z,97844.81
2022-09-03T19:04:53.567Z,97849.59
2022-09-03T19:07:13.534Z,97843.09
2022-09-03T19:09:33.511Z,97853.47
2022-09-03T19:11:55.851Z,97852.47
2022-09-03T19:14:15.887Z,97854.28
2022-09-03T19:16:37.115Z,97854.56
2022-09-03T19:18:57.264Z,97856.44
2022-09-03T19:21:17.580Z,97858.84
2022-09-03T19:23:37.999Z,97858.81
2022-09-03T19:25:58.471Z,97866.06
2022-09-03T19:28:21.629Z,97867.22
2022-09-03T19:30:41.990Z,97863.31
2022-09-03T19:33:11.933Z,97871.38
2022-09-03T19:35:36.951Z,97872.22
2022-09-03T19:37:57.234Z,97871.84
2022-09-03T19:40:17.212Z,97870.94
2022-09-03T19:42:37.963Z,97867.53
2022-09-03T19:44:58.712Z,97863.00
2022-09-03T19:47:18.791Z,97864.88
2022-09-03T19:49:38.723Z,97869.38
2022-09-03T19:51:59.038Z,97872.56
2022-09-03T19:54:19.045Z,97867.34
2022-09-03T19:56:38.918Z,97875.81
2022-09-03T19:58:58.615Z,97875.03
2022-09-03T20:01:18.599Z,97866.31
2022-09-03T20:03:38.687Z,97875.88
2022-09-03T20:05:58.663Z,97878.09
2022-09-03T20:08:18.810Z,97874.31
2022-09-03T20:10:22.852Z,97868.19
2022-09-03T20:12:24.195Z,97873.91
2022-09-03T20:14:25.521Z,97868.94
2022-09-03T20:16:27.044Z,97867.25
2022-09-03T20:18:28.348Z,97874.19
2022-09-03T20:20:29.643Z,97874.63
2022-09-03T20:22:31.038Z,97874.78
2022-09-03T20:24:33.359Z,97882.66
2022-09-03T20:26:34.715Z,97885.47
2022-09-03T20:28:36.042Z,97889.66
2022-09-03T20:30:37.474Z,97888.22
2022-09-03T20:32:38.859Z,97888.56
2022-09-03T20:34:40.167Z,97894.13
2022-09-03T20:36:41.519Z,97888.28
2022-09-03T20:38:42.831Z,97895.59
2022-09-03T20:40:44.143Z,97894.50
2022-09-03T20:42:45.479Z,97892.63
2022-09-03T20:44:46.827Z,97897.59
2022-09-03T20:46:48.166Z,97904.16
2022-09-03T20:48:49.498Z,97789.41
2022-09-03T20:50:53.223Z,97907.38
2022-09-03T20:52:54.599Z,97909.09
2022-09-03T20:54:57.017Z,97913.53
2022-09-03T20:56:58.793Z,97914.97
2022-09-03T20:59:00.238Z,97911.06
2022-09-03T21:01:02.841Z,97912.63
2022-09-03T21:03:04.335Z,97913.56
2022-09-03T21:05:06.374Z,97925.22
2022-09-03T21:07:07.922Z,97916.13
2022-09-03T21:09:09.264Z,97925.91
2022-09-03T21:11:10.689Z,97925.22
2022-09-03T21:13:16.104Z,97913.94
2022-09-03T21:15:17.447Z,97913.19
2022-09-03T21:17:19.671Z,97917.19
2022-09-03T21:19:21.386Z,97917.94
2022-09-03T21:21:22.934Z,97914.53
2022-09-03T21:23:24.238Z,97914.44
2022-09-03T21:25:25.597Z,97904.47
2022-09-03T21:27:26.895Z,97914.22
2022-09-03T21:29:28.238Z,97911.94
2022-09-03T21:31:29.533Z,97907.59
2022-09-03T21:33:30.895Z,97911.66
2022-09-03T21:35:32.201Z,97904.34
2022-09-03T21:37:33.517Z,97916.03
2022-09-03T21:39:35.767Z,97916.03
2022-09-03T21:41:37.829Z,97912.69
2022-09-03T21:43:39.163Z,97918.25
2022-09-03T21:45:40.574Z,97918.47
2022-09-03T21:47:41.999Z,97939.50
2022-09-03T21:49:43.307Z,97918.22
2022-09-03T21:51:44.615Z,97916.53
2022-09-03T21:53:45.955Z,97929.59
2022-09-03T21:55:47.282Z,97923.22
2022-09-03T21:57:48.591Z,97919.06
2022-09-03T21:59:49.946Z,97919.16
2022-09-03T22:01:51.698Z,97925.91
2022-09-03T22:03:53.881Z,97926.03
2022-09-03T22:05:55.191Z,97921.66
2022-09-03T22:07:56.500Z,97925.94
2022-09-03T22:09:57.815Z,97932.53
2022-09-03T22:11:59.131Z,97926.75
2022-09-03T22:14:00.439Z,97926.69
2022-09-03T22:16:01.741Z,97929.34
2022-09-03T22:18:03.046Z,97929.44
2022-09-03T22:20:04.395Z,97923.63
2022-09-03T22:22:05.707Z,97927.72
2022-09-03T22:24:18.937Z,97925.09
2022-09-03T22:26:23.571Z,97928.56
2022-09-03T22:28:25.731Z,97918.41
2022-09-03T22:30:27.156Z,97912.28
2022-09-03T22:32:28.484Z,97911.22
2022-09-03T22:34:29.778Z,97916.50
2022-09-03T22:36:31.100Z,97916.34
2022-09-03T22:38:32.434Z,97910.28
2022-09-03T22:40:33.749Z,97911.19
2022-09-03T22:42:35.074Z,97909.09
2022-09-03T22:44:36.462Z,97921.34
2022-09-03T22:46:37.757Z,97923.84
2022-09-03T22:48:39.067Z,97921.75
2022-09-03T22:50:40.407Z,97927.53
2022-09-03T22:52:41.759Z,97919.78
2022-09-03T22:54:43.063Z,97923.78
2022-09-03T22:56:44.367Z,97924.78
2022-09-03T22:58:45.774Z,97921.38
2022-09-03T23:00:47.106Z,97921.84
2022-09-03T23:02:48.466Z,97835.69
2022-09-03T23:04:49.766Z,97922.16
2022-09-03T23:06:53.339Z,97922.41
2022-09-03T23:08:54.762Z,97915.53
2022-09-03T23:10:56.378Z,97928.38
2022-09-03T23:12:57.683Z,97918.03
2022-09-03T23:15:01.283Z,97910.94
2022-09-03T23:17:06.081Z,97920.28
2022-09-03T23:21:21.412Z,97921.16
2022-09-03T23:23:22.762Z,97922.53
2022-09-03T23:25:24.068Z,97919.88
2022-09-03T23:27:26.066Z,97920.47
2022-09-03T23:29:27.438Z,97923.38
2022-09-03T23:31:28.776Z,97925.31
2022-09-03T23:33:30.107Z,97917.06
2022-09-03T23:35:31.526Z,97924.00
2022-09-03T23:37:34.849Z,97915.63
2022-09-03T23:39:36.288Z,97925.06
2022-09-03T23:41:37.787Z,97922.59
2022-09-03T23:43:39.089Z,97920.97
2022-09-03T23:45:40.552Z,97928.72
2022-09-03T23:47:45.881Z,97923.69
2022-09-03T23:49:47.382Z,97920.34
2022-09-03T23:51:49.826Z,97929.81
2022-09-03T23:53:51.130Z,97922.16
2022-09-03T23:55:55.978Z,97923.91
2022-09-03T23:57:57.479Z,97934.22
2022-09-03T23:59:58.787Z,97929.13
